Time;durP1;ratioP1;P1;durP2;ratioP2;P2;SDS_P1;SDS_P2;PMS_P1;PMS_P2;Temp;Humidity;BMP_temperature;BMP_pressure;BME280_temperature;BME280_humidity;BME280_pressure;Samples;Min_cycle;Max_cycle;Signal;HPM_P1;HPM_P2
2022/05/01 00:04:08;;;;;;;59.13;30.60;;;;;;;;;;10089251;29;20074;-67
2022/05/01 00:09:11;;;;;;;56.22;28.40;;;;;;;;;;10077014;29;20053;-66
2022/05/01 00:14:14;;;;;;;57.40;28.80;;;;;;;;;;10083460;29;20056;-68
2022/05/01 00:19:18;;;;;;;45.08;26.38;;;;;;;;;;10114513;29;20289;-67
2022/05/01 00:24:20;;;;;;;54.58;28.27;;;;;;;;;;10087169;29;20046;-67
2022/05/01 00:29:24;;;;;;;102.00;50.72;;;;;;;;;;10107542;29;20077;-67
2022/05/01 00:39:47;;;;;;;84.82;41.83;;;;;;;;;;10088392;29;20054;-72
2022/05/01 00:44:50;;;;;;;72.20;37.47;;;;;;;;;;10073565;29;20045;-67
2022/05/01 00:49:53;;;;;;;65.53;33.03;;;;;;;;;;10037000;29;20077;-67
2022/05/01 00:54:56;;;;;;;62.08;32.08;;;;;;;;;;10055256;29;20057;-67
2022/05/01 00:59:59;;;;;;;61.63;31.42;;;;;;;;;;10077369;29;20056;-67
2022/05/01 01:05:03;;;;;;;60.58;34.38;;;;;;;;;;10126001;29;20336;-66
2022/05/01 01:10:06;;;;;;;68.73;35.23;;;;;;;;;;10074905;29;20053;-67
2022/05/01 01:15:09;;;;;;;74.53;36.33;;;;;;;;;;10088005;29;20109;-66
2022/05/01 01:20:15;;;;;;;69.95;37.72;;;;;;;;;;10074130;29;20057;-67
2022/05/01 01:25:22;;;;;;;79.18;37.13;;;;;;;;;;10086590;29;20055;-67
2022/05/01 01:35:48;;;;;;;67.78;36.35;;;;;;;;;;10086826;29;20466;-67
2022/05/01 01:40:54;;;;;;;68.78;36.47;;;;;;;;;;10084711;29;20046;-65
2022/05/01 01:45:57;;;;;;;61.30;33.17;;;;;;;;;;10089927;29;20080;-67
2022/05/01 01:51:02;;;;;;;63.50;31.90;;;;;;;;;;10101293;29;20045;-66
2022/05/01 01:56:08;;;;;;;;;;;;;;;;;;10095313;29;20328;-66
2022/05/01 02:01:11;;;;;;;54.20;29.05;;;;;;;;;;10080556;29;19920;-67
2022/05/01 02:06:14;;;;;;;51.17;27.50;;;;;;;;;;10080969;29;20054;-68
2022/05/01 02:11:18;;;;;;;77.70;40.20;;;;;;;;;;10099666;29;20255;-66
2022/05/01 02:16:20;;;;;;;58.90;33.90;;;;;;;;;;10083650;29;20241;-66
2022/05/01 02:21:35;;;;;;;66.13;33.45;;;;;;;;;;10079070;29;20392;-67
2022/05/01 02:26:39;;;;;;;67.43;34.73;;;;;;;;;;10104583;29;20049;-67
2022/05/01 02:31:43;;;;;;;67.15;34.92;;;;;;;;;;10079192;29;20057;-66
2022/05/01 02:36:46;;;;;;;66.97;35.03;;;;;;;;;;10087041;29;20089;-66
2022/05/01 02:41:50;;;;;;;65.65;35.80;;;;;;;;;;10079731;29;20045;-66
2022/05/01 02:46:52;;;;;;;70.25;37.10;;;;;;;;;;10079441;29;20049;-67
2022/05/01 02:51:55;;;;;;;72.47;38.72;;;;;;;;;;10087130;29;20057;-67
2022/05/01 02:56:59;;;;;;;75.15;41.85;;;;;;;;;;10078464;29;20107;-67
2022/05/01 03:02:01;;;;;;;78.90;41.65;;;;;;;;;;10078174;29;20065;-66
2022/05/01 03:07:07;;;;;;;72.18;40.42;;;;;;;;;;10094285;29;20064;-67
2022/05/01 03:12:11;;;;;;;76.03;38.90;;;;;;;;;;10094028;29;20052;-67
2022/05/01 03:17:13;;;;;;;70.82;38.92;;;;;;;;;;10079793;29;20245;-67
2022/05/01 03:22:15;;;;;;;72.45;40.40;;;;;;;;;;10078633;29;20045;-67
2022/05/01 03:27:19;;;;;;;83.78;38.30;;;;;;;;;;10077999;29;20098;-67
2022/05/01 03:32:22;;;;;;;71.53;36.83;;;;;;;;;;10084297;29;20080;-67
2022/05/01 03:37:24;;;;;;;66.60;35.80;;;;;;;;;;10094908;29;20049;-66
2022/05/01 03:42:28;;;;;;;69.00;37.13;;;;;;;;;;10105406;29;20045;-67
2022/05/01 03:47:32;;;;;;;68.53;38.88;;;;;;;;;;10088364;29;20300;-66
2022/05/01 03:52:35;;;;;;;56.87;32.33;;;;;;;;;;10053239;29;20053;-68
2022/05/01 03:57:39;;;;;;;55.08;29.15;;;;;;;;;;10083877;29;20053;-68
2022/05/01 04:02:42;;;;;;;48.83;25.95;;;;;;;;;;10087813;29;20068;-67
2022/05/01 04:07:45;;;;;;;47.60;26.92;;;;;;;;;;10111608;29;20304;-67
2022/05/01 04:12:49;;;;;;;53.50;25.55;;;;;;;;;;10080901;29;20275;-67
2022/05/01 04:17:51;;;;;;;40.43;23.67;;;;;;;;;;10105589;29;20053;-67
2022/05/01 04:22:53;;;;;;;40.38;24.38;;;;;;;;;;10115796;29;20045;-67
2022/05/01 04:28:00;;;;;;;42.35;24.50;;;;;;;;;;10109082;29;20049;-67
2022/05/01 04:33:04;;;;;;;43.08;24.42;;;;;;;;;;10097481;29;20065;-67
2022/05/01 04:38:08;;;;;;;44.28;24.25;;;;;;;;;;10114687;29;20083;-67
2022/05/01 04:43:14;;;;;;;39.72;23.17;;;;;;;;;;10098865;29;20053;-67
2022/05/01 04:48:19;;;;;;;33.83;22.05;;;;;;;;;;10098475;29;20097;-67
2022/05/01 04:53:23;;;;;;;36.40;21.73;;;;;;;;;;10075783;29;20244;-67
2022/05/01 04:58:27;;;;;;;36.15;22.92;;;;;;;;;;10076178;29;20206;-68
2022/05/01 05:03:30;;;;;;;41.90;23.85;;;;;;;;;;10099556;29;20359;-67
2022/05/01 05:13:54;;;;;;;37.90;23.60;;;;;;;;;;10107220;29;20052;-66
2022/05/01 05:18:57;;;;;;;36.80;21.38;;;;;;;;;;10115690;29;20057;-67
2022/05/01 05:23:59;;;;;;;30.75;19.92;;;;;;;;;;10074195;29;20286;-68
2022/05/01 05:29:03;;;;;;;30.35;18.42;;;;;;;;;;10097484;29;20045;-68
2022/05/01 05:34:06;;;;;;;28.33;17.77;;;;;;;;;;10103084;29;20038;-67
2022/05/01 05:39:08;;;;;;;22.45;11.45;;;;;;;;;;10074076;29;20097;-67
2022/05/01 05:44:14;;;;;;;18.50;10.82;;;;;;;;;;10090554;29;20049;-68
2022/05/01 05:49:17;;;;;;;13.48;9.07;;;;;;;;;;10086016;29;20053;-68
2022/05/01 05:54:20;;;;;;;14.45;8.50;;;;;;;;;;10076473;29;20083;-68
2022/05/01 05:59:23;;;;;;;26.00;13.73;;;;;;;;;;10075537;29;20069;-68
2022/05/01 06:04:26;;;;;;;17.25;10.95;;;;;;;;;;10111518;29;20073;-69
2022/05/01 06:09:29;;;;;;;10.43;7.57;;;;;;;;;;10112109;29;20053;-68
2022/05/01 06:14:33;;;;;;;13.63;8.05;;;;;;;;;;10112480;29;20160;-67
2022/05/01 06:19:36;;;;;;;10.15;7.00;;;;;;;;;;10073083;29;20065;-68
2022/05/01 06:24:38;;;;;;;8.70;5.38;;;;;;;;;;10089489;29;20339;-69
2022/05/01 06:29:41;;;;;;;7.10;5.63;;;;;;;;;;10114045;29;20060;-68
2022/05/01 06:34:45;;;;;;;11.80;5.80;;;;;;;;;;10117073;29;20053;-68
2022/05/01 06:39:47;;;;;;;8.05;4.80;;;;;;;;;;10119040;29;20359;-69
2022/05/01 06:44:51;;;;;;;9.05;4.20;;;;;;;;;;10119613;29;20060;-68
2022/05/01 06:49:54;;;;;;;7.20;3.97;;;;;;;;;;10111655;29;20048;-70
2022/05/01 06:54:57;;;;;;;6.27;4.33;;;;;;;;;;10115871;29;20052;-68
2022/05/01 07:00:00;;;;;;;5.97;4.20;;;;;;;;;;10117085;29;20061;-68
2022/05/01 07:05:03;;;;;;;7.00;4.80;;;;;;;;;;10118559;29;20332;-68
2022/05/01 07:10:07;;;;;;;7.13;5.70;;;;;;;;;;10117008;29;20074;-68
2022/05/01 07:15:11;;;;;;;8.82;5.60;;;;;;;;;;10116126;29;20072;-68
2022/05/01 07:20:13;;;;;;;6.70;6.10;;;;;;;;;;10100480;29;20049;-68
2022/05/01 07:25:16;;;;;;;7.50;6.80;;;;;;;;;;10097669;29;20044;-69
2022/05/01 07:30:20;;;;;;;9.05;8.15;;;;;;;;;;10048206;29;20042;-70
2022/05/01 07:35:22;;;;;;;9.70;8.70;;;;;;;;;;10055443;29;20137;-71
2022/05/01 07:40:24;;;;;;;10.77;9.82;;;;;;;;;;10114256;29;20240;-68
2022/05/01 07:45:28;;;;;;;12.88;11.82;;;;;;;;;;10118211;29;20063;-66
2022/05/01 07:50:31;;;;;;;14.38;13.18;;;;;;;;;;10113048;29;20041;-67
2022/05/01 07:55:33;;;;;;;17.35;15.90;;;;;;;;;;10116953;29;20115;-70
2022/05/01 08:00:37;;;;;;;20.60;18.95;;;;;;;;;;10101009;29;20288;-70
2022/05/01 08:05:40;;;;;;;22.58;21.20;;;;;;;;;;10083979;29;20053;-72
2022/05/01 08:10:42;;;;;;;24.77;23.00;;;;;;;;;;10069970;29;20094;-70
2022/05/01 08:15:46;;;;;;;27.00;25.05;;;;;;;;;;10085621;29;20044;-71
2022/05/01 08:21:07;;;;;;;29.00;27.48;;;;;;;;;;10101514;29;20048;-72
2022/05/01 08:26:17;;;;;;;35.20;33.30;;;;;;;;;;10101655;29;20358;-69
2022/05/01 08:31:21;;;;;;;37.85;35.75;;;;;;;;;;10121933;29;20041;-69
2022/05/01 08:36:24;;;;;;;43.80;41.30;;;;;;;;;;10090608;29;20325;-71
2022/05/01 08:41:30;;;;;;;48.90;46.00;;;;;;;;;;10082269;29;20061;-70
2022/05/01 08:47:01;;;;;;;51.95;48.85;;;;;;;;;;10123415;29;20278;-72
2022/05/01 08:52:07;;;;;;;53.25;50.05;;;;;;;;;;10087422;29;20044;-71
2022/05/01 08:57:09;;;;;;;47.72;44.92;;;;;;;;;;10098837;29;20052;-72
2022/05/01 09:02:14;;;;;;;38.70;36.50;;;;;;;;;;10075419;29;20097;-71
2022/05/01 09:07:16;;;;;;;26.75;25.35;;;;;;;;;;10081855;29;20064;-72
2022/05/01 09:17:37;;;;;;;12.75;12.18;;;;;;;;;;10055683;29;20250;-71
2022/05/01 09:22:50;;;;;;;9.63;9.23;;;;;;;;;;10086943;29;20053;-75
2022/05/01 09:27:56;;;;;;;6.85;6.65;;;;;;;;;;10074232;29;20098;-72
2022/05/01 09:33:01;;;;;;;4.45;4.35;;;;;;;;;;10109838;29;20340;-71
2022/05/01 09:38:14;;;;;;;0.90;0.90;;;;;;;;;;10112817;29;20057;-70
2022/05/01 09:43:36;;;;;;;1.38;0.80;;;;;;;;;;10120626;29;20329;-79
2022/05/01 09:48:42;;;;;;;6.07;2.70;;;;;;;;;;10087388;29;20248;-72
2022/05/01 09:53:45;;;;;;;6.00;3.33;;;;;;;;;;10093940;29;20056;-75
2022/05/01 09:58:57;;;;;;;6.97;3.25;;;;;;;;;;10090149;29;20290;-71
2022/05/01 10:04:02;;;;;;;10.98;3.33;;;;;;;;;;10075682;29;20061;-71
2022/05/01 10:09:06;;;;;;;5.93;3.50;;;;;;;;;;10094047;29;20050;-73
2022/05/01 10:14:08;;;;;;;3.97;3.22;;;;;;;;;;10083742;29;20308;-68
2022/05/01 10:19:14;;;;;;;8.18;3.80;;;;;;;;;;10093949;29;20060;-68
2022/05/01 10:24:17;;;;;;;10.88;4.20;;;;;;;;;;10091238;29;20061;-69
2022/05/01 10:29:36;;;;;;;4.50;3.10;;;;;;;;;;10076465;29;20053;-68
2022/05/01 10:35:12;;;;;;;4.13;3.70;;;;;;;;;;10117460;29;20049;-68
2022/05/01 10:40:15;;;;;;;7.97;3.78;;;;;;;;;;10081737;29;20054;-68
2022/05/01 10:45:42;;;;;;;7.53;4.28;;;;;;;;;;10077763;29;20054;-68
2022/05/01 10:50:48;;;;;;;7.20;3.70;;;;;;;;;;10080033;29;20313;-70
2022/05/01 10:55:53;;;;;;;4.13;3.40;;;;;;;;;;10092533;29;20049;-67
2022/05/01 11:00:57;;;;;;;7.25;3.03;;;;;;;;;;10078181;29;20069;-69
2022/05/01 11:06:09;;;;;;;11.52;4.47;;;;;;;;;;10078294;29;20053;-67
2022/05/01 11:11:13;;;;;;;10.27;5.10;;;;;;;;;;10109371;29;20053;-68
2022/05/01 11:16:15;;;;;;;7.53;3.58;;;;;;;;;;10114118;29;20105;-69
2022/05/01 11:21:37;;;;;;;4.88;3.75;;;;;;;;;;10115432;29;20047;-69
2022/05/01 11:27:11;;;;;;;8.23;3.47;;;;;;;;;;10111222;29;20049;-69
2022/05/01 11:32:18;;;;;;;4.10;3.30;;;;;;;;;;10077792;29;20060;-69
2022/05/01 11:37:24;;;;;;;7.32;3.10;;;;;;;;;;10103469;29;20049;-67
2022/05/01 11:42:32;;;;;;;6.75;3.20;;;;;;;;;;10130098;29;20101;-67
2022/05/01 11:47:35;;;;;;;7.57;3.30;;;;;;;;;;10092856;29;20065;-71
2022/05/01 11:52:40;;;;;;;10.60;3.53;;;;;;;;;;10105326;29;20057;-71
2022/05/01 12:03:06;;;;;;;5.85;3.00;;;;;;;;;;10075906;29;20062;-70
2022/05/01 12:08:10;;;;;;;11.60;3.60;;;;;;;;;;10076981;29;20221;-71
2022/05/01 12:13:17;;;;;;;15.25;4.35;;;;;;;;;;10078168;29;20044;-76
2022/05/01 12:18:20;;;;;;;3.75;3.13;;;;;;;;;;10049082;29;20213;-72
2022/05/01 12:23:25;;;;;;;6.20;2.92;;;;;;;;;;10100691;29;20320;-69
2022/05/01 12:28:27;;;;;;;4.43;2.90;;;;;;;;;;10114760;29;20264;-76
2022/05/01 12:33:30;;;;;;;5.53;3.05;;;;;;;;;;10114830;29;20044;-72
2022/05/01 12:38:33;;;;;;;5.68;3.30;;;;;;;;;;10090158;29;20049;-72
2022/05/01 12:43:55;;;;;;;6.50;3.22;;;;;;;;;;10097163;29;20041;-71
2022/05/01 12:48:59;;;;;;;5.00;2.80;;;;;;;;;;10126408;29;20243;-73
2022/05/01 12:54:10;;;;;;;5.47;3.35;;;;;;;;;;10113766;29;20324;-72
2022/05/01 12:59:28;;;;;;;5.15;2.53;;;;;;;;;;10115161;29;20264;-69
2022/05/01 13:04:32;;;;;;;7.38;2.95;;;;;;;;;;10102345;29;20279;-68
2022/05/01 13:15:04;;;;;;;4.35;2.50;;;;;;;;;;10551196;27;20771;-68
2022/05/01 13:20:08;;;;;;;6.10;2.80;;;;;;;;;;10550240;28;20048;-67
2022/05/01 13:25:13;;;;;;;6.82;3.00;;;;;;;;;;10546723;28;20185;-69
2022/05/01 13:30:16;;;;;;;4.60;2.55;;;;;;;;;;10550015;28;20090;-68
2022/05/01 13:35:19;;;;;;;5.65;2.58;;;;;;;;;;10545854;28;20149;-69
2022/05/01 13:45:42;;;;;;;9.07;2.92;;;;;;;;;;10521800;28;20068;-68
2022/05/01 13:50:44;;;;;;;4.45;3.13;;;;;;;;;;10520649;28;20040;-67
2022/05/01 13:55:46;;;;;;;3.27;2.80;;;;;;;;;;10544371;28;20059;-67
2022/05/01 14:00:51;;;;;;;6.37;3.80;;;;;;;;;;10548509;28;20216;-69
2022/05/01 14:05:53;;;;;;;7.03;3.20;;;;;;;;;;10548443;28;20331;-68
2022/05/01 14:10:56;;;;;;;5.47;3.22;;;;;;;;;;10528798;28;20115;-68
2022/05/01 14:16:00;;;;;;;;;;;;;;;;;;10507642;28;20052;-68
2022/05/01 14:21:03;;;;;;;5.10;3.30;;;;;;;;;;10518781;28;20088;-68
2022/05/01 14:26:06;;;;;;;4.70;3.80;;;;;;;;;;10493491;28;20052;-69
2022/05/01 14:31:18;;;;;;;5.53;4.50;;;;;;;;;;10500654;28;20044;-69
2022/05/01 14:36:23;;;;;;;8.55;4.53;;;;;;;;;;10498256;28;20045;-67
2022/05/01 14:41:34;;;;;;;10.23;4.80;;;;;;;;;;10532146;28;20079;-69
2022/05/01 14:46:42;;;;;;;7.57;4.25;;;;;;;;;;10528952;28;20045;-68
2022/05/01 14:51:46;;;;;;;5.90;3.40;;;;;;;;;;10519251;28;20040;-68
2022/05/01 14:56:49;;;;;;;5.50;3.40;;;;;;;;;;10481626;28;20335;-69
2022/05/01 15:07:18;;;;;;;8.50;4.50;;;;;;;;;;10529669;28;20060;-69
2022/05/01 15:12:21;;;;;;;6.95;4.00;;;;;;;;;;10517618;28;20243;-67
2022/05/01 15:17:30;;;;;;;7.95;4.80;;;;;;;;;;10516545;28;20288;-68
2022/05/01 15:22:41;;;;;;;7.70;4.43;;;;;;;;;;10526890;28;20060;-67
2022/05/01 15:27:48;;;;;;;6.88;4.47;;;;;;;;;;10490647;28;20040;-68
2022/05/01 15:38:20;;;;;;;7.55;4.50;;;;;;;;;;10488343;28;20146;-68
2022/05/01 15:43:23;;;;;;;7.78;5.30;;;;;;;;;;10477203;28;20053;-67
2022/05/01 15:53:36;;;;;;;8.43;5.15;;;;;;;;;;10482627;28;20057;-69
2022/05/01 15:53:51;;;;;;;11.57;5.32;;;;;;;;;;10476920;28;20045;-68
2022/05/01 15:58:54;;;;;;;7.85;5.32;;;;;;;;;;10475631;28;20057;-67
2022/05/01 16:03:58;;;;;;;10.55;5.45;;;;;;;;;;10499555;28;20083;-67
2022/05/01 16:09:02;;;;;;;12.10;5.43;;;;;;;;;;10497015;28;20049;-67
2022/05/01 16:14:13;;;;;;;8.20;5.70;;;;;;;;;;10474256;28;20067;-66
2022/05/01 16:19:25;;;;;;;11.30;5.95;;;;;;;;;;10514067;28;20074;-67
2022/05/01 16:24:30;;;;;;;15.52;7.50;;;;;;;;;;10513822;28;20052;-68
2022/05/01 16:29:44;;;;;;;9.93;5.78;;;;;;;;;;10514922;28;20389;-67
2022/05/01 16:34:54;;;;;;;9.82;4.88;;;;;;;;;;10514527;28;20040;-67
2022/05/01 16:39:58;;;;;;;8.38;4.40;;;;;;;;;;10496974;28;20041;-67
2022/05/01 16:45:02;;;;;;;7.22;4.45;;;;;;;;;;10503751;28;20223;-67
2022/05/01 16:50:08;;;;;;;12.27;4.57;;;;;;;;;;10509094;28;20049;-67
2022/05/01 16:55:13;;;;;;;7.43;4.30;;;;;;;;;;10475627;28;20053;-67
2022/05/01 17:00:17;;;;;;;8.80;4.72;;;;;;;;;;10473240;28;20041;-68
2022/05/01 17:05:29;;;;;;;6.75;5.30;;;;;;;;;;10472633;28;20108;-68
2022/05/01 17:10:41;;;;;;;11.70;5.47;;;;;;;;;;10511951;28;20060;-67
2022/05/01 17:15:45;;;;;;;10.60;6.30;;;;;;;;;;10514457;28;20404;-67
2022/05/01 17:20:59;;;;;;;9.57;4.67;;;;;;;;;;10511854;28;20264;-68
2022/05/01 17:26:03;;;;;;;14.50;5.00;;;;;;;;;;10488863;28;20041;-66
2022/05/01 17:31:12;;;;;;;26.27;5.63;;;;;;;;;;10514767;28;20066;-67
2022/05/01 17:36:17;;;;;;;20.15;6.30;;;;;;;;;;10528526;28;20041;-67
2022/05/01 17:41:22;;;;;;;;;;;;;;;;;;10513860;28;20115;-66
2022/05/01 17:46:25;;;;;;;17.95;5.97;;;;;;;;;;10492005;28;19920;-67
2022/05/01 17:51:29;;;;;;;23.98;6.40;;;;;;;;;;10513252;28;20097;-67
2022/05/01 17:56:31;;;;;;;10.88;5.82;;;;;;;;;;10510147;28;20044;-67
2022/05/01 18:01:48;;;;;;;14.98;6.22;;;;;;;;;;10505543;28;20052;-66
2022/05/01 18:12:31;;;;;;;12.70;6.63;;;;;;;;;;10513816;28;20339;-67
2022/05/01 18:17:47;;;;;;;31.45;6.93;;;;;;;;;;10535362;28;20102;-67
2022/05/01 18:23:00;;;;;;;21.25;7.50;;;;;;;;;;10534818;28;20053;-67
2022/05/01 18:28:07;;;;;;;13.95;7.18;;;;;;;;;;10533794;28;20081;-66
2022/05/01 18:33:22;;;;;;;19.08;7.28;;;;;;;;;;10517512;28;20146;-67
2022/05/01 18:38:32;;;;;;;13.93;6.83;;;;;;;;;;10506283;28;20049;-68
2022/05/01 18:43:36;;;;;;;20.13;7.30;;;;;;;;;;10536339;28;20344;-68
2022/05/01 18:48:39;;;;;;;11.55;7.32;;;;;;;;;;10519064;28;20262;-68
2022/05/01 18:53:44;;;;;;;19.25;8.45;;;;;;;;;;10503162;28;20053;-66
2022/05/01 18:58:48;;;;;;;25.35;9.45;;;;;;;;;;10483557;28;20050;-68
2022/05/01 19:03:51;;;;;;;23.88;8.82;;;;;;;;;;10478072;28;20049;-68
2022/05/01 19:09:10;;;;;;;20.88;8.25;;;;;;;;;;10488597;28;20063;-67
2022/05/01 19:14:26;;;;;;;20.35;11.60;;;;;;;;;;10488499;28;20060;-66
2022/05/01 19:19:44;;;;;;;20.75;8.80;;;;;;;;;;10492045;28;20045;-68
2022/05/01 19:30:29;;;;;;;11.63;7.50;;;;;;;;;;10518514;28;20047;-67
2022/05/01 19:35:36;;;;;;;14.23;8.32;;;;;;;;;;10478008;28;20053;-67
2022/05/01 19:40:47;;;;;;;20.27;8.80;;;;;;;;;;10490171;28;20041;-67
2022/05/01 19:46:00;;;;;;;17.30;8.30;;;;;;;;;;10497192;28;20117;-66
2022/05/01 19:56:31;;;;;;;18.85;8.68;;;;;;;;;;10524088;28;20040;-66
2022/05/01 20:01:35;;;;;;;19.13;8.95;;;;;;;;;;10487571;28;20041;-67
2022/05/01 20:06:37;;;;;;;28.17;10.52;;;;;;;;;;10486590;28;20248;-67
2022/05/01 20:11:41;;;;;;;35.92;17.23;;;;;;;;;;10485015;28;20068;-68
2022/05/01 20:16:46;;;;;;;16.40;9.05;;;;;;;;;;10515378;28;20055;-67
2022/05/01 20:21:53;;;;;;;;;;;;;;;;;;10495975;28;20044;-68
2022/05/01 20:27:07;;;;;;;21.88;9.20;;;;;;;;;;10480716;28;20199;-67
2022/05/01 20:32:13;;;;;;;16.00;9.38;;;;;;;;;;10522641;28;20056;-67
2022/05/01 20:37:33;;;;;;;24.73;10.45;;;;;;;;;;10514827;28;20047;-68
2022/05/01 20:43:01;;;;;;;19.85;10.52;;;;;;;;;;10498472;28;20051;-67
2022/05/01 20:48:12;;;;;;;17.35;10.15;;;;;;;;;;10523232;28;20052;-66
2022/05/01 20:53:22;;;;;;;21.23;9.88;;;;;;;;;;10485723;28;20048;-68
2022/05/01 20:58:27;;;;;;;17.85;11.88;;;;;;;;;;10509158;28;20070;-66
2022/05/01 21:03:31;;;;;;;22.90;13.35;;;;;;;;;;10488472;28;20052;-67
2022/05/01 21:08:38;;;;;;;27.25;14.48;;;;;;;;;;10472446;28;20225;-67
2022/05/01 21:13:49;;;;;;;24.80;12.70;;;;;;;;;;10473470;28;20348;-67
2022/05/01 21:18:52;;;;;;;26.05;13.13;;;;;;;;;;10486679;28;20049;-67
2022/05/01 21:23:54;;;;;;;26.33;13.02;;;;;;;;;;10495529;28;20324;-67
2022/05/01 21:34:17;;;;;;;22.70;12.25;;;;;;;;;;10482140;28;20252;-67
2022/05/01 21:39:19;;;;;;;22.10;12.63;;;;;;;;;;10481580;28;20324;-67
2022/05/01 21:44:23;;;;;;;20.55;12.02;;;;;;;;;;10514473;28;20052;-67
2022/05/01 21:49:26;;;;;;;16.88;11.95;;;;;;;;;;10520697;28;20243;-67
2022/05/01 21:54:28;;;;;;;19.23;11.52;;;;;;;;;;10489031;28;20374;-68
2022/05/01 21:59:31;;;;;;;19.63;10.95;;;;;;;;;;10480264;28;20328;-68
2022/05/01 22:04:36;;;;;;;18.45;10.82;;;;;;;;;;10511245;28;20045;-67
2022/05/01 22:09:38;;;;;;;17.73;10.80;;;;;;;;;;10484777;28;20041;-67
2022/05/01 22:14:43;;;;;;;16.30;10.32;;;;;;;;;;10478801;28;20069;-67
2022/05/01 22:19:46;;;;;;;18.77;10.27;;;;;;;;;;10483617;28;20045;-67
2022/05/01 22:24:48;;;;;;;19.10;10.63;;;;;;;;;;10519873;28;20154;-67
2022/05/01 22:29:52;;;;;;;18.45;10.38;;;;;;;;;;10520838;28;20224;-67
2022/05/01 22:40:11;;;;;;;14.82;10.00;;;;;;;;;;10519930;28;20114;-67
2022/05/01 22:45:15;;;;;;;15.70;10.32;;;;;;;;;;10497676;28;20067;-67
2022/05/01 22:50:17;;;;;;;15.75;9.40;;;;;;;;;;10478482;28;20049;-67
2022/05/01 22:55:20;;;;;;;15.75;9.00;;;;;;;;;;10489747;28;20116;-68
2022/05/01 23:00:23;;;;;;;17.25;9.07;;;;;;;;;;10504324;28;20336;-67
2022/05/01 23:05:26;;;;;;;17.98;9.57;;;;;;;;;;10519447;28;20051;-67
2022/05/01 23:10:29;;;;;;;20.13;9.70;;;;;;;;;;10509874;28;20049;-68
2022/05/01 23:15:33;;;;;;;16.35;9.15;;;;;;;;;;10510597;28;20064;-67
2022/05/01 23:20:54;;;;;;;20.10;10.13;;;;;;;;;;10493774;28;20064;-67
2022/05/01 23:25:57;;;;;;;15.82;9.55;;;;;;;;;;10490934;28;20324;-67
2022/05/01 23:31:01;;;;;;;12.82;8.80;;;;;;;;;;10477273;28;20045;-67
2022/05/01 23:36:03;;;;;;;18.70;9.65;;;;;;;;;;10506836;28;20040;-67
2022/05/01 23:41:06;;;;;;;18.52;9.05;;;;;;;;;;10517837;28;20056;-67
2022/05/01 23:46:09;;;;;;;11.82;8.80;;;;;;;;;;10518445;28;20267;-67
2022/05/01 23:51:12;;;;;;;16.05;8.80;;;;;;;;;;10491703;28;20272;-67
2022/05/01 23:56:15;;;;;;;15.40;8.70;;;;;;;;;;10474412;28;20052;-67
